createdAt,value
2023-11-21T00:03:15.724Z,92929.73
2023-11-21T00:08:23.052Z,92934.42
2023-11-21T00:13:30.202Z,92933.66
2023-11-21T00:18:37.427Z,92935.74
2023-11-21T00:23:44.302Z,92942.38
2023-11-21T00:28:52.147Z,92949.24
2023-11-21T00:33:59.143Z,92947.64
2023-11-21T00:39:07.403Z,92944.71
2023-11-21T00:44:14.855Z,92940.20
2023-11-21T00:49:22.361Z,92948.92
2023-11-21T00:54:32.050Z,92958.42
2023-11-21T00:59:39.591Z,92947.58
2023-11-21T01:04:46.615Z,92948.36
2023-11-21T01:09:53.484Z,92951.81
2023-11-21T01:15:02.117Z,92952.30
2023-11-21T01:20:12.674Z,92948.67
2023-11-21T01:25:19.949Z,92947.36
2023-11-21T01:30:27.078Z,92941.08
2023-11-21T01:35:34.358Z,92935.05
2023-11-21T01:40:41.404Z,92936.63
2023-11-21T01:45:48.426Z,92933.71
2023-11-21T01:50:55.384Z,92941.33
2023-11-21T01:56:02.491Z,92928.39
2023-11-21T02:01:11.415Z,92929.94
2023-11-21T02:06:18.554Z,92921.23
2023-11-21T02:11:25.844Z,92927.05
2023-11-21T02:16:34.689Z,92925.98
2023-11-21T02:21:42.048Z,92923.03
2023-11-21T02:26:49.388Z,92912.81
2023-11-21T02:31:57.945Z,92912.23
2023-11-21T02:37:05.457Z,92906.50
2023-11-21T02:42:12.526Z,92913.34
2023-11-21T02:47:19.659Z,92913.92
2023-11-21T02:52:26.775Z,92915.77
2023-11-21T02:57:33.857Z,92913.13
2023-11-21T03:02:41.538Z,92921.56
2023-11-21T03:07:49.002Z,92923.69
2023-11-21T03:12:56.170Z,92928.66
2023-11-21T03:18:03.146Z,92933.95
2023-11-21T03:23:10.236Z,92940.03
2023-11-21T03:28:17.120Z,92938.72
2023-11-21T03:33:24.277Z,92941.58
2023-11-21T03:38:31.163Z,92940.77
2023-11-21T03:43:38.598Z,92937.34
2023-11-21T03:48:45.603Z,92943.16
2023-11-21T03:53:52.592Z,92945.53
2023-11-21T03:58:59.798Z,92940.78
2023-11-21T04:04:07.104Z,92950.78
2023-11-21T04:09:14.194Z,92943.64
2023-11-21T04:14:21.853Z,92942.61
2023-11-21T04:19:28.924Z,92946.27
2023-11-21T04:24:35.675Z,92945.48
2023-11-21T04:29:42.944Z,92941.27
2023-11-21T04:34:49.984Z,92934.16
2023-11-21T04:39:57.038Z,92933.14
2023-11-21T04:45:05.530Z,92938.89
2023-11-21T04:50:13.016Z,92953.39
2023-11-21T04:55:21.336Z,92943.14
2023-11-21T05:00:28.451Z,92947.52
2023-11-21T05:05:35.768Z,92946.97
2023-11-21T05:10:42.955Z,92944.59
2023-11-21T05:15:49.856Z,92944.28
2023-11-21T05:20:57.049Z,92939.91
2023-11-21T05:26:04.155Z,92950.14
2023-11-21T05:31:16.679Z,92937.55
2023-11-21T05:36:21.363Z,92946.76
2023-11-21T05:41:28.198Z,92951.47
2023-11-21T05:46:35.995Z,92953.61
2023-11-21T05:51:43.229Z,92967.80
2023-11-21T05:56:51.284Z,92969.63
2023-11-21T06:01:58.171Z,92963.83
2023-11-21T06:07:05.917Z,92961.77
2023-11-21T06:12:13.059Z,92969.94
2023-11-21T06:17:22.162Z,92969.20
2023-11-21T06:22:29.581Z,92963.88
2023-11-21T06:27:38.321Z,92963.66
2023-11-21T06:32:49.788Z,92969.03
2023-11-21T06:37:57.061Z,92968.62
2023-11-21T06:43:04.103Z,92973.89
2023-11-21T06:48:11.213Z,92987.41
2023-11-21T06:53:18.516Z,92994.69
2023-11-21T06:58:25.987Z,93005.29
2023-11-21T07:03:33.451Z,93002.47
2023-11-21T07:08:40.473Z,93004.98
2023-11-21T07:13:47.445Z,92999.71
2023-11-21T07:18:56.299Z,92992.91
2023-11-21T07:24:04.813Z,92985.04
2023-11-21T07:29:20.524Z,92989.52
2023-11-21T07:34:27.831Z,92992.64
2023-11-21T07:39:35.079Z,93004.27
2023-11-21T07:44:44.003Z,93006.42
2023-11-21T07:49:50.965Z,93010.67
2023-11-21T07:54:58.040Z,93014.86
2023-11-21T08:00:07.338Z,93006.95
2023-11-21T08:05:21.761Z,93003.87
2023-11-21T08:10:23.467Z,93012.05
2023-11-21T08:15:30.714Z,93010.72
2023-11-21T08:20:39.620Z,93008.56
2023-11-21T08:25:48.151Z,93000.36
2023-11-21T08:30:57.016Z,92994.36
2023-11-21T08:36:03.862Z,92989.36
2023-11-21T08:41:12.636Z,92991.73
2023-11-21T08:46:20.560Z,92994.88
2023-11-21T08:51:27.990Z,92994.63
2023-11-21T08:56:34.958Z,92993.50
2023-11-21T09:01:42.266Z,92994.85
2023-11-21T09:06:49.309Z,92993.32
2023-11-21T09:11:56.509Z,92994.08
2023-11-21T09:17:03.542Z,93002.03
2023-11-21T09:22:10.939Z,92998.88
2023-11-21T09:27:19.154Z,92999.38
2023-11-21T09:32:26.346Z,92998.83
2023-11-21T09:37:34.131Z,92997.28
2023-11-21T09:42:45.842Z,93002.28
2023-11-21T09:48:23.277Z,93004.94
2023-11-21T09:53:33.149Z,92985.66
2023-11-21T09:58:40.884Z,92989.37
2023-11-21T10:03:48.617Z,92979.59
2023-11-21T10:08:58.236Z,92975.39
2023-11-21T10:14:06.773Z,92977.19
2023-11-21T10:19:16.390Z,92971.09
2023-11-21T10:24:23.771Z,92964.56
2023-11-21T10:29:34.553Z,92964.30
2023-11-21T10:34:42.860Z,92975.63
2023-11-21T10:39:50.238Z,92986.17
2023-11-21T10:44:58.125Z,92975.58
2023-11-21T10:50:06.791Z,92971.39
2023-11-21T10:55:23.889Z,92974.59
2023-11-21T11:00:31.363Z,92970.36
2023-11-21T11:05:39.159Z,92974.05
2023-11-21T11:10:49.396Z,92979.00
2023-11-21T11:16:03.904Z,92967.72
2023-11-21T11:21:19.857Z,92974.78
2023-11-21T11:26:51.901Z,92975.58
2023-11-21T11:32:36.214Z,92974.55
2023-11-21T11:37:43.039Z,92971.15
2023-11-21T11:43:01.018Z,92961.92
2023-11-21T11:48:09.609Z,92964.28
2023-11-21T11:53:20.633Z,92955.32
2023-11-21T11:58:32.318Z,92970.91
2023-11-21T12:03:40.513Z,92957.95
2023-11-21T12:08:48.328Z,92938.94
2023-11-21T12:13:55.789Z,92935.77
2023-11-21T12:19:02.778Z,92937.64
2023-11-21T12:24:15.134Z,92937.36
2023-11-21T12:29:22.249Z,92935.01
2023-11-21T12:34:29.727Z,92933.66
2023-11-21T12:39:36.680Z,92939.48
2023-11-21T12:44:45.085Z,92933.92
2023-11-21T12:49:51.910Z,92915.98
2023-11-21T12:54:58.849Z,92918.56
2023-11-21T13:00:09.005Z,92925.45
2023-11-21T13:05:17.625Z,92916.72
2023-11-21T13:10:30.324Z,92920.63
2023-11-21T13:15:38.063Z,92917.59
2023-11-21T13:20:45.449Z,92911.27
2023-11-21T13:25:58.067Z,92898.09
2023-11-21T13:31:02.629Z,92889.33
2023-11-21T13:36:11.798Z,92899.63
2023-11-21T13:41:19.379Z,92902.28
2023-11-21T13:46:26.996Z,92908.62
2023-11-21T13:51:35.340Z,92924.72
2023-11-21T13:56:52.171Z,92913.66
2023-11-21T14:02:01.500Z,92918.92
2023-11-21T14:07:26.536Z,92915.50
2023-11-21T14:12:36.613Z,92917.33
2023-11-21T14:17:44.302Z,92906.28
2023-11-21T14:22:51.123Z,92898.56
2023-11-21T14:27:58.179Z,92911.53
2023-11-21T14:33:05.592Z,92919.20
2023-11-21T14:38:12.852Z,92912.34
2023-11-21T14:43:20.509Z,92912.07
2023-11-21T14:48:47.028Z,92923.44
2023-11-21T14:53:58.319Z,92940.55
2023-11-21T14:59:10.093Z,92942.09
2023-11-21T15:04:18.546Z,92934.98
2023-11-21T15:09:26.941Z,92949.97
2023-11-21T15:14:35.884Z,92964.09
2023-11-21T15:19:43.744Z,92967.26
2023-11-21T15:24:50.943Z,92976.40
2023-11-21T15:29:57.839Z,92990.68
2023-11-21T15:35:06.064Z,92987.13
2023-11-21T15:40:15.232Z,92977.73
2023-11-21T15:45:24.449Z,92984.56
2023-11-21T15:50:33.278Z,93001.61
2023-11-21T15:55:41.874Z,93002.54
2023-11-21T16:00:48.713Z,92990.17
2023-11-21T16:05:55.466Z,93000.96
2023-11-21T16:11:02.299Z,93004.66
2023-11-21T16:16:09.377Z,93010.72
2023-11-21T16:21:22.387Z,93018.66
2023-11-21T16:26:29.062Z,93015.70
2023-11-21T16:31:36.185Z,93024.03
2023-11-21T16:36:46.662Z,93027.75
2023-11-21T16:41:54.492Z,93031.23
2023-11-21T16:47:05.071Z,93038.59
2023-11-21T16:52:24.103Z,93040.91
2023-11-21T16:57:32.861Z,93044.05
2023-11-21T17:02:41.647Z,93044.67
2023-11-21T17:07:49.692Z,93044.22
2023-11-21T17:12:56.723Z,93044.34
2023-11-21T17:18:04.608Z,93043.30
2023-11-21T17:23:11.986Z,93043.64
2023-11-21T17:28:18.846Z,93053.34
2023-11-21T17:33:26.321Z,93053.20
2023-11-21T17:38:33.813Z,93062.58
2023-11-21T17:43:45.247Z,93057.92
2023-11-21T17:48:55.925Z,93064.84
2023-11-21T17:54:03.229Z,93063.72
2023-11-21T17:59:10.485Z,93064.13
2023-11-21T18:04:17.312Z,93062.25
2023-11-21T18:09:24.415Z,93064.52
2023-11-21T18:14:34.436Z,93065.09
2023-11-21T18:19:41.367Z,93079.14
2023-11-21T18:24:48.237Z,93081.49
2023-11-21T18:29:55.488Z,93079.59
2023-11-21T18:35:02.520Z,93084.01
2023-11-21T18:40:11.223Z,93086.70
2023-11-21T18:45:18.038Z,93085.75
2023-11-21T18:50:25.361Z,93091.03
2023-11-21T18:55:32.514Z,93097.98
2023-11-21T19:00:39.351Z,93104.03
2023-11-21T19:05:46.151Z,93106.74
2023-11-21T19:10:52.949Z,93107.52
2023-11-21T19:15:59.739Z,93110.98
2023-11-21T19:21:06.582Z,93117.08
2023-11-21T19:26:15.582Z,93114.18
2023-11-21T19:31:24.459Z,93108.92
2023-11-21T19:36:31.605Z,93121.20
2023-11-21T19:41:41.335Z,93117.71
2023-11-21T19:46:48.956Z,93123.81
2023-11-21T19:51:56.254Z,93138.94
2023-11-21T19:57:05.410Z,93139.72
2023-11-21T20:02:12.549Z,93156.00
2023-11-21T20:07:21.038Z,93163.74
2023-11-21T20:12:28.306Z,93162.62
2023-11-21T20:17:35.181Z,93156.48
2023-11-21T20:22:42.900Z,93153.80
2023-11-21T20:27:50.109Z,93155.36
2023-11-21T20:32:59.649Z,93154.16
2023-11-21T20:38:08.985Z,93165.38
2023-11-21T20:43:16.277Z,93175.05
2023-11-21T20:48:24.261Z,93185.22
2023-11-21T20:53:31.275Z,93190.17
2023-11-21T20:58:38.627Z,93184.97
2023-11-21T21:03:47.559Z,93175.39
2023-11-21T21:08:56.222Z,93174.57
2023-11-21T21:14:06.284Z,93179.17
2023-11-21T21:19:15.235Z,93185.22
2023-11-21T21:24:22.250Z,93179.87
2023-11-21T21:29:29.289Z,93186.53
2023-11-21T21:34:36.516Z,93194.77
2023-11-21T21:39:43.585Z,93198.55
2023-11-21T21:44:51.432Z,93201.36
2023-11-21T21:49:58.360Z,93189.43
2023-11-21T21:55:07.336Z,93197.21
2023-11-21T22:00:15.176Z,93205.16
2023-11-21T22:05:22.208Z,93209.34
2023-11-21T22:10:29.627Z,93202.92
2023-11-21T22:15:36.424Z,93202.50
2023-11-21T22:20:43.203Z,93215.86
2023-11-21T22:25:50.248Z,93218.28
2023-11-21T22:30:57.120Z,93218.48
2023-11-21T22:36:04.160Z,93222.45
2023-11-21T22:41:11.377Z,93216.37
2023-11-21T22:46:18.344Z,93229.49
2023-11-21T22:51:25.993Z,93233.14
2023-11-21T22:56:33.764Z,93237.89
2023-11-21T23:01:40.933Z,93233.14
2023-11-21T23:06:50.191Z,93241.99
2023-11-21T23:11:58.768Z,93253.12
2023-11-21T23:17:05.795Z,93251.36
2023-11-21T23:22:13.339Z,93232.04
2023-11-21T23:27:20.558Z,93227.21
2023-11-21T23:32:28.108Z,93218.53
2023-11-21T23:37:35.128Z,93227.85
2023-11-21T23:42:42.552Z,93221.02
2023-11-21T23:47:49.777Z,93216.25
2023-11-21T23:52:57.177Z,93221.70
2023-11-21T23:58:04.377Z,93227.19
